Time;durP1;ratioP1;P1;durP2;ratioP2;P2;SDS_P1;SDS_P2;PMS_P1;PMS_P2;Temp;Humidity;BMP_temperature;BMP_pressure;BME280_temperature;BME280_humidity;BME280_pressure;Samples;Min_cycle;Max_cycle;Signal;HPM_P1;HPM_P2
2022/09/30 00:00:09;;;;;;;13.10;11.80;;;;;;;8.57;100.00;100562.22;2095937;28;20195;-73
2022/09/30 00:01:14;;;;;;;13.65;12.40;;;;;;;8.57;100.00;100559.53;2096690;28;20037;-74
2022/09/30 00:02:15;;;;;;;13.63;12.38;;;;;;;8.57;100.00;100564.88;2104911;28;20033;-72
2022/09/30 00:03:17;;;;;;;12.25;11.05;;;;;;;8.55;100.00;100570.25;2104823;28;21151;-73
2022/09/30 00:04:24;;;;;;;12.77;11.68;;;;;;;8.56;100.00;100571.13;2095821;28;20041;-73
2022/09/30 00:05:26;;;;;;;14.27;12.98;;;;;;;8.55;100.00;100564.03;2096741;28;20049;-73
2022/09/30 00:06:30;;;;;;;13.52;12.32;;;;;;;8.54;100.00;100564.94;2087746;28;20029;-74
2022/09/30 00:07:31;;;;;;;12.00;10.77;;;;;;;8.52;100.00;100564.97;2088731;28;20049;-74
2022/09/30 00:08:34;;;;;;;14.77;13.27;;;;;;;8.52;100.00;100564.09;2105273;28;20758;-74
2022/09/30 00:09:36;;;;;;;12.05;10.88;;;;;;;8.51;100.00;100552.53;2105007;28;20046;-74
2022/09/30 00:10:38;;;;;;;12.60;11.27;;;;;;;8.50;100.00;100560.56;2105110;28;20056;-73
2022/09/30 00:11:41;;;;;;;13.07;11.88;;;;;;;8.47;100.00;100555.28;2104927;28;20043;-74
2022/09/30 00:12:43;;;;;;;15.23;12.00;;;;;;;8.46;100.00;100553.56;2096171;28;20033;-72
2022/09/30 00:13:49;;;;;;;14.45;13.15;;;;;;;8.45;100.00;100554.44;2096359;28;20043;-72
2022/09/30 00:14:53;;;;;;;12.25;11.20;;;;;;;8.41;100.00;100554.47;2104931;28;20039;-72
2022/09/30 00:15:55;;;;;;;14.35;12.85;;;;;;;8.40;100.00;100560.75;2095652;28;20029;-72
2022/09/30 00:16:59;;;;;;;13.25;12.05;;;;;;;8.39;100.00;100563.44;2096049;28;20142;-72
2022/09/30 00:18:00;;;;;;;13.70;12.32;;;;;;;8.36;100.00;100568.81;2096238;28;20823;-72
2022/09/30 00:19:04;;;;;;;13.05;11.77;;;;;;;8.34;100.00;100571.50;2105020;28;20041;-72
2022/09/30 00:20:07;;;;;;;14.05;12.73;;;;;;;8.33;100.00;100569.78;2095112;28;20049;-72
2022/09/30 00:21:11;;;;;;;14.13;12.65;;;;;;;8.34;100.00;100574.19;2095962;28;20045;-72
2022/09/30 00:22:13;;;;;;;15.48;13.85;;;;;;;8.31;100.00;100566.25;2096457;28;20410;-72
2022/09/30 00:23:15;;;;;;;14.38;13.07;;;;;;;8.29;100.00;100573.41;2104684;28;20753;-72
2022/09/30 00:24:16;;;;;;;16.75;13.65;;;;;;;8.28;100.00;100576.09;2095855;28;20040;-72
2022/09/30 00:25:18;;;;;;;13.40;12.20;;;;;;;8.26;100.00;100578.81;2096063;28;20500;-73
2022/09/30 00:26:22;;;;;;;15.55;14.05;;;;;;;8.26;100.00;100584.13;2104785;28;20029;-73
2022/09/30 00:27:24;;;;;;;14.73;13.32;;;;;;;8.25;100.00;100577.03;2095605;28;20041;-72
2022/09/30 00:28:28;;;;;;;13.77;12.38;;;;;;;8.22;100.00;100577.13;2096042;28;20964;-72
2022/09/30 00:29:32;;;;;;;14.88;13.48;;;;;;;8.21;100.00;100576.22;2104609;28;20900;-72
2022/09/30 00:30:36;;;;;;;12.68;11.57;;;;;;;8.17;100.00;100568.31;2104620;28;20064;-72
2022/09/30 00:31:38;;;;;;;13.27;11.02;;;;;;;8.14;100.00;100571.91;2095657;28;20034;-72
2022/09/30 00:32:41;;;;;;;14.55;13.20;;;;;;;8.12;100.00;100564.84;2087783;28;20118;-72
2022/09/30 00:33:43;;;;;;;12.98;11.77;;;;;;;8.09;100.00;100570.22;2096811;28;20041;-72
2022/09/30 00:34:47;;;;;;;14.93;13.38;;;;;;;8.07;100.00;100572.06;2095462;28;20871;-72
2022/09/30 00:35:48;;;;;;;13.50;12.27;;;;;;;8.01;100.00;100568.59;2096159;28;20037;-73
2022/09/30 00:36:55;;;;;;;14.60;13.02;;;;;;;7.97;100.00;100566.91;2104401;28;21053;-72
2022/09/30 00:38:00;;;;;;;13.95;12.57;;;;;;;7.94;100.00;100572.28;2104730;28;20032;-72
2022/09/30 00:39:06;;;;;;;15.27;13.77;;;;;;;7.93;100.00;100567.88;2104654;28;20925;-72
2022/09/30 00:40:10;;;;;;;15.13;13.40;;;;;;;7.93;100.00;100575.88;2104902;28;20033;-72
2022/09/30 00:41:12;;;;;;;16.38;14.77;;;;;;;7.93;100.00;100570.53;2093406;28;20157;-72
2022/09/30 00:42:18;;;;;;;12.98;11.68;;;;;;;7.90;100.00;100567.03;2097942;28;20037;-72
2022/09/30 00:43:40;;;;;;;12.20;11.10;;;;;;;7.83;100.00;100584.94;2088502;28;20823;-72
2022/09/30 00:44:54;;;;;;;13.77;12.43;;;;;;;7.83;100.00;100574.25;2075835;28;20061;-72
2022/09/30 00:45:58;;;;;;;14.30;13.00;;;;;;;7.82;100.00;100573.41;2084855;28;20046;-71
2022/09/30 00:47:01;;;;;;;18.27;14.48;;;;;;;7.81;100.00;100574.28;2088484;28;20037;-72
2022/09/30 00:48:19;;;;;;;16.52;14.93;;;;;;;7.82;100.00;100578.72;2081348;28;20193;-72
2022/09/30 00:49:24;;;;;;;14.57;13.20;;;;;;;7.83;100.00;100579.59;2091429;28;20041;-72
2022/09/30 00:50:48;;;;;;;15.60;14.18;;;;;;;7.78;100.00;100582.31;2096736;28;20048;-72
2022/09/30 00:51:55;;;;;;;17.73;16.20;;;;;;;7.77;100.00;100579.69;2083789;28;20918;-73
2022/09/30 00:53:05;;;;;;;17.02;15.45;;;;;;;7.75;100.00;100579.72;2090713;28;20034;-73
2022/09/30 00:54:17;;;;;;;14.80;13.40;;;;;;;7.71;100.00;100578.00;2097902;28;20425;-73
2022/09/30 00:55:58;;;;;;;15.82;14.25;;;;;;;7.70;100.00;100580.69;2088840;28;20347;-73
2022/09/30 00:57:03;;;;;;;13.27;11.98;;;;;;;7.68;100.00;100577.19;2095867;28;20088;-72
2022/09/30 00:58:10;;;;;;;17.05;15.35;;;;;;;7.68;100.00;100579.84;2097748;28;20033;-73
2022/09/30 00:59:21;;;;;;;15.85;14.38;;;;;;;7.70;100.00;100575.34;2088869;28;20041;-72
2022/09/30 01:00:23;;;;;;;16.52;14.93;;;;;;;7.72;100.00;100578.91;2082786;28;20030;-72
2022/09/30 01:01:26;;;;;;;19.77;17.77;;;;;;;7.75;100.00;100578.84;2090267;28;20846;-73
2022/09/30 01:02:28;;;;;;;19.40;17.58;;;;;;;7.76;100.00;100581.47;2088577;28;20917;-73
2022/09/30 01:03:43;;;;;;;18.63;16.88;;;;;;;7.77;100.00;100585.00;2088899;28;20922;-72
2022/09/30 01:04:46;;;;;;;19.60;17.88;;;;;;;7.78;100.00;100584.13;2098046;28;20064;-72
2022/09/30 01:05:50;;;;;;;17.88;16.17;;;;;;;7.77;100.00;100583.25;2088752;28;20037;-72
2022/09/30 01:06:52;;;;;;;18.23;16.48;;;;;;;7.77;100.00;100577.00;2081356;28;20100;-73
2022/09/30 01:07:58;;;;;;;16.58;14.98;;;;;;;7.75;100.00;100584.16;2080644;28;23067;-72
2022/09/30 01:09:00;;;;;;;18.23;16.42;;;;;;;7.75;100.00;100587.72;2081462;28;20069;-72
2022/09/30 01:10:03;;;;;;;19.58;17.52;;;;;;;7.76;100.00;100580.59;2080992;28;20835;-72
2022/09/30 01:11:05;;;;;;;16.85;15.15;;;;;;;7.74;100.00;100585.09;2093782;28;21209;-73
2022/09/30 01:12:15;;;;;;;18.67;16.88;;;;;;;7.74;100.00;100580.63;2105509;28;20029;-73
2022/09/30 01:13:22;;;;;;;18.90;16.90;;;;;;;7.76;100.00;100577.94;2097376;28;20882;-72
2022/09/30 01:14:27;;;;;;;18.33;16.55;;;;;;;7.78;100.00;100576.13;2097248;28;20831;-72
2022/09/30 01:15:58;;;;;;;17.17;15.48;;;;;;;7.76;100.00;100575.28;2089810;28;20843;-71
2022/09/30 01:17:16;;;;;;;20.40;15.70;;;;;;;7.74;100.00;100577.09;2085230;28;20045;-72
2022/09/30 01:19:08;;;;;;;15.88;14.38;;;;;;;7.72;100.00;100574.44;2096660;28;20033;-72
2022/09/30 01:20:53;;;;;;;17.40;15.70;;;;;;;7.73;100.00;100577.97;2066220;28;20053;-71
2022/09/30 01:22:18;;;;;;;16.50;14.80;;;;;;;7.71;100.00;100574.47;2096866;28;20044;-71
2022/09/30 01:24:14;;;;;;;16.30;14.70;;;;;;;7.65;100.00;100571.00;2095742;28;20041;-72
2022/09/30 01:25:28;;;;;;;15.25;13.75;;;;;;;7.61;100.00;100571.97;2079379;28;20049;-72
2022/09/30 01:26:50;;;;;;;18.70;15.40;;;;;;;7.58;100.00;100568.47;2080007;28;20038;-72
2022/09/30 01:28:25;;;;;;;16.55;15.00;;;;;;;7.55;100.00;100580.03;2080232;28;20053;-72
2022/09/30 01:29:46;;;;;;;14.57;13.27;;;;;;;7.50;100.00;100581.94;2079844;28;20140;-72
2022/09/30 01:31:06;;;;;;;15.23;13.73;;;;;;;7.48;100.00;100583.72;2093159;28;20174;-72
2022/09/30 01:32:19;;;;;;;15.38;13.68;;;;;;;7.45;100.00;100578.44;2105753;28;24488;-72
2022/09/30 01:33:47;;;;;;;13.93;12.48;;;;;;;7.41;100.00;100585.63;2106189;28;20339;-71
2022/09/30 01:35:20;;;;;;;14.88;13.38;;;;;;;7.38;100.00;100579.44;2096866;28;20056;-72
2022/09/30 01:36:58;;;;;;;12.02;10.93;;;;;;;7.35;100.00;100592.81;2097248;28;20080;-72
2022/09/30 01:38:15;;;;;;;11.93;10.77;;;;;;;7.31;100.00;100591.09;2105914;28;20024;-72
2022/09/30 01:39:43;;;;;;;15.50;14.00;;;;;;;7.30;100.00;100589.34;2105559;28;20041;-72
2022/09/30 01:41:03;;;;;;;13.23;12.02;;;;;;;7.24;100.00;100583.19;2087982;28;21088;-72
2022/09/30 01:42:37;;;;;;;13.75;11.45;;;;;;;7.21;100.00;100585.94;2096602;28;20041;-72
2022/09/30 01:44:27;;;;;;;16.08;12.90;;;;;;;7.22;100.00;100581.47;2105652;28;20881;-72
2022/09/30 01:45:43;;;;;;;15.73;14.10;;;;;;;7.24;100.00;100585.84;2071693;28;20055;-73
2022/09/30 01:46:59;;;;;;;17.48;14.57;;;;;;;7.24;100.00;100588.50;2062931;28;20901;-73
2022/09/30 01:48:21;;;;;;;19.42;17.52;;;;;;;7.31;100.00;100575.13;2066320;28;20309;-73
2022/09/30 01:49:33;;;;;;;20.52;18.55;;;;;;;7.34;100.00;100575.06;2063646;28;20046;-72
2022/09/30 01:51:32;;;;;;;19.95;18.05;;;;;;;7.35;100.00;100575.03;2067675;28;20046;-73
2022/09/30 01:53:18;;;;;;;20.42;17.65;;;;;;;7.28;100.00;100576.03;2102055;28;20167;-72
2022/09/30 01:54:25;;;;;;;20.95;17.05;;;;;;;7.25;100.00;100571.66;2071305;28;22828;-72
2022/09/30 01:55:37;;;;;;;22.23;17.80;;;;;;;7.26;100.00;100565.41;2088924;28;20061;-72
2022/09/30 01:56:46;;;;;;;20.25;17.95;;;;;;;7.31;100.00;100570.66;2081899;28;23443;-72
2022/09/30 01:58:15;;;;;;;20.15;17.77;;;;;;;7.26;100.00;100568.06;2075280;28;20069;-72
2022/09/30 01:59:42;;;;;;;19.50;16.10;;;;;;;7.23;100.00;100564.56;2097787;28;20848;-72
2022/09/30 02:00:52;;;;;;;15.13;13.63;;;;;;;7.15;100.00;100574.47;2082266;28;20046;-72
2022/09/30 02:02:08;;;;;;;17.90;16.17;;;;;;;7.10;100.00;100571.88;2083676;28;23061;-72
2022/09/30 02:03:30;;;;;;;16.67;14.98;;;;;;;7.06;100.00;100576.34;2088781;28;20040;-72
2022/09/30 02:04:40;;;;;;;18.40;16.50;;;;;;;7.03;100.00;100573.75;2084058;28;20826;-73
2022/09/30 02:05:52;;;;;;;17.13;15.43;;;;;;;6.99;100.00;100574.69;2091987;28;20041;-72
2022/09/30 02:07:00;;;;;;;16.35;14.70;;;;;;;7.01;100.00;100577.31;2088218;28;20038;-72
2022/09/30 02:08:10;;;;;;;17.23;15.52;;;;;;;6.96;100.00;100582.69;2081638;28;21436;-72
2022/09/30 02:09:24;;;;;;;19.42;17.55;;;;;;;6.96;100.00;100579.16;2081256;28;20049;-72
2022/09/30 02:10:43;;;;;;;20.45;18.25;;;;;;;6.98;100.00;100582.69;2082065;28;20142;-72
2022/09/30 02:11:45;;;;;;;19.83;17.73;;;;;;;6.92;100.00;100582.78;2075831;28;20846;-72
2022/09/30 02:12:56;;;;;;;22.40;18.92;;;;;;;6.88;100.00;100593.47;2073853;28;20046;-72
2022/09/30 02:14:50;;;;;;;20.05;18.05;;;;;;;6.83;100.00;100589.97;2073719;28;20042;-72
2022/09/30 02:15:58;;;;;;;21.58;19.27;;;;;;;6.84;100.00;100586.44;2063593;28;20042;-72
2022/09/30 02:17:15;;;;;;;15.80;14.30;;;;;;;6.75;100.00;100585.66;2054833;28;20153;-72
2022/09/30 02:18:35;;;;;;;20.58;18.13;;;;;;;6.67;100.00;100593.75;2049928;28;20051;-72
2022/09/30 02:20:01;;;;;;;14.93;13.43;;;;;;;6.60;100.00;100586.72;2051645;28;20051;-72
2022/09/30 02:21:07;;;;;;;14.80;13.40;;;;;;;6.58;100.00;100593.84;2065209;28;20908;-71
2022/09/30 02:22:21;;;;;;;14.95;13.48;;;;;;;6.52;100.00;100585.97;2089186;28;20052;-72
2022/09/30 02:23:29;;;;;;;16.77;14.20;;;;;;;6.47;100.00;100592.19;2088313;28;20037;-72
2022/09/30 02:24:38;;;;;;;12.85;11.55;;;;;;;6.45;100.00;100593.13;2080121;28;20056;-71
2022/09/30 02:25:46;;;;;;;15.63;13.95;;;;;;;6.43;100.00;100593.13;2073241;28;22871;-72
2022/09/30 02:26:50;;;;;;;18.02;16.23;;;;;;;6.37;100.00;100592.31;2073861;28;20043;-71
2022/09/30 02:27:58;;;;;;;18.17;15.73;;;;;;;6.33;100.00;100593.25;2072634;28;20090;-72
2022/09/30 02:29:07;;;;;;;15.80;14.18;;;;;;;6.30;100.00;100592.41;2064583;28;20082;-72
2022/09/30 02:30:12;;;;;;;16.30;14.75;;;;;;;6.27;100.00;100591.56;2066713;28;20053;-72
2022/09/30 02:31:17;;;;;;;13.90;12.50;;;;;;;6.22;100.00;100591.59;2071959;28;20039;-72
2022/09/30 02:32:49;;;;;;;13.57;12.27;;;;;;;6.17;100.00;100587.22;2079973;28;20026;-72
2022/09/30 02:34:21;;;;;;;13.65;11.85;;;;;;;6.10;100.00;100595.28;2084672;28;20049;-72
2022/09/30 02:35:34;;;;;;;11.65;10.32;;;;;;;6.06;100.00;100590.88;2085107;28;20058;-70
2022/09/30 02:36:55;;;;;;;14.63;13.23;;;;;;;6.04;100.00;100597.09;2088383;28;20045;-72
2022/09/30 02:38:10;;;;;;;14.95;12.88;;;;;;;6.00;100.00;100590.94;2079955;28;20034;-72
2022/09/30 02:39:25;;;;;;;14.98;13.38;;;;;;;5.97;100.00;100601.59;2075646;28;23185;-72
2022/09/30 02:40:38;;;;;;;20.20;18.10;;;;;;;6.05;100.00;100599.75;2075215;28;21220;-72
2022/09/30 02:41:51;;;;;;;18.33;16.50;;;;;;;5.97;100.00;100601.59;2081334;28;20057;-72
2022/09/30 02:42:53;;;;;;;22.70;17.50;;;;;;;5.96;100.00;100599.84;2089116;28;21044;-72
2022/09/30 02:43:55;;;;;;;18.20;16.42;;;;;;;5.94;100.00;100593.63;2088440;28;20052;-72
2022/09/30 02:45:07;;;;;;;17.70;15.95;;;;;;;5.96;100.00;100593.63;2079758;28;21289;-72
2022/09/30 02:46:27;;;;;;;21.67;18.42;;;;;;;5.96;100.00;100599.84;2079982;28;35506;-71
2022/09/30 02:48:10;;;;;;;20.88;17.23;;;;;;;5.94;100.00;100604.25;2089084;28;20088;-72
2022/09/30 02:49:38;;;;;;;18.50;16.52;;;;;;;5.91;100.00;100605.16;2077207;28;36060;-72
2022/09/30 02:50:52;;;;;;;22.45;18.55;;;;;;;5.92;100.00;100608.69;2087886;28;35884;-72
2022/09/30 02:52:15;;;;;;;25.42;21.77;;;;;;;5.95;100.00;100607.78;2087801;28;36732;-72
2022/09/30 02:53:21;;;;;;;22.67;19.40;;;;;;;5.96;100.00;100612.22;2088291;28;40209;-72
2022/09/30 02:55:14;;;;;;;22.42;20.00;;;;;;;5.92;100.00;100614.91;2087842;28;32829;-72
2022/09/30 02:56:43;;;;;;;26.98;19.88;;;;;;;5.92;100.00;100608.69;2070198;28;33360;-73
2022/09/30 02:58:12;;;;;;;26.75;20.75;;;;;;;5.88;100.00;100612.28;2088277;28;34819;-72
2022/09/30 02:59:14;;;;;;;21.60;16.60;;;;;;;5.84;100.00;100616.75;2078895;28;39290;-72
2022/09/30 03:00:16;;;;;;;21.48;19.15;;;;;;;5.80;100.00;100614.13;2079282;28;31461;-72
2022/09/30 03:01:18;;;;;;;16.45;14.70;;;;;;;5.79;100.00;100617.69;2078728;28;40336;-72
2022/09/30 03:02:20;;;;;;;21.27;17.85;;;;;;;5.73;100.00;100619.47;2078985;28;38389;-72
2022/09/30 03:03:28;;;;;;;19.27;17.20;;;;;;;5.70;100.00;100618.63;2079215;28;36064;-71
2022/09/30 03:04:34;;;;;;;17.50;15.52;;;;;;;5.66;100.00;100617.78;2080228;28;37074;-72
2022/09/30 03:05:36;;;;;;;16.90;15.07;;;;;;;5.62;100.00;100612.50;2087295;28;29710;-72
2022/09/30 03:06:38;;;;;;;16.48;14.25;;;;;;;5.59;100.00;100616.06;2079068;28;36259;-72
2022/09/30 03:07:40;;;;;;;18.88;16.77;;;;;;;5.56;100.00;100618.72;2079553;28;34367;-71
2022/09/30 03:08:42;;;;;;;26.00;21.17;;;;;;;5.60;100.00;100617.84;2078963;28;29783;-72
2022/09/30 03:09:44;;;;;;;25.40;19.52;;;;;;;5.59;100.00;100626.69;2079942;28;20053;-72
2022/09/30 03:10:50;;;;;;;26.58;20.42;;;;;;;5.59;100.00;100618.72;2091494;28;37737;-72
2022/09/30 03:12:17;;;;;;;20.25;17.95;;;;;;;5.59;100.00;100624.03;2095443;28;31244;-72
2022/09/30 03:13:33;;;;;;;21.77;17.65;;;;;;;5.60;100.00;100624.91;2095351;28;38991;-72
2022/09/30 03:15:21;;;;;;;22.05;17.30;;;;;;;5.54;100.00;100624.06;2101950;28;20103;-72
2022/09/30 03:16:58;;;;;;;23.15;17.35;;;;;;;5.47;100.00;100624.09;2096012;28;34694;-72
2022/09/30 03:18:32;;;;;;;15.88;12.93;;;;;;;5.42;100.00;100628.56;2095651;28;39004;-72
2022/09/30 03:19:53;;;;;;;21.20;16.92;;;;;;;5.38;100.00;100627.72;2095400;28;37744;-72
2022/09/30 03:21:21;;;;;;;19.48;17.42;;;;;;;5.39;100.00;100628.59;2101749;28;37760;-72
2022/09/30 03:22:38;;;;;;;16.30;14.60;;;;;;;5.41;100.00;100637.44;2087500;28;36674;-72
2022/09/30 03:23:58;;;;;;;20.92;15.68;;;;;;;5.37;100.00;100630.41;2094832;28;20875;-72
2022/09/30 03:25:34;;;;;;;19.63;17.45;;;;;;;5.43;100.00;100627.69;2104926;28;29237;-72
2022/09/30 03:26:45;;;;;;;20.48;18.02;;;;;;;5.45;100.00;100623.25;2104294;28;39312;-73
2022/09/30 03:27:56;;;;;;;24.27;21.17;;;;;;;5.48;100.00;100640.03;2105127;28;20036;-72
2022/09/30 03:29:21;;;;;;;19.80;17.55;;;;;;;5.49;100.00;100632.94;2104808;28;40172;-72
2022/09/30 03:30:28;;;;;;;16.98;15.20;;;;;;;5.47;100.00;100632.97;2104494;28;38247;-73
2022/09/30 03:31:56;;;;;;;27.95;22.75;;;;;;;5.48;100.00;100642.69;2105370;28;20037;-73
2022/09/30 03:33:29;;;;;;;29.45;25.35;;;;;;;5.55;100.00;100639.09;2095981;28;35189;-73
2022/09/30 03:35:19;;;;;;;34.15;25.17;;;;;;;5.59;100.00;100637.31;2100493;28;32680;-72
2022/09/30 03:36:34;;;;;;;29.95;25.05;;;;;;;5.66;100.00;100636.38;2078166;28;33639;-73
2022/09/30 03:38:15;;;;;;;37.00;27.80;;;;;;;5.72;100.00;100635.44;2095953;28;33539;-73
2022/09/30 03:39:50;;;;;;;33.40;26.83;;;;;;;5.88;100.00;100638.84;2102613;28;20905;-72
2022/09/30 03:41:17;;;;;;;37.80;28.95;;;;;;;6.00;100.00;100646.75;2104082;28;39465;-73
2022/09/30 03:42:28;;;;;;;38.50;30.02;;;;;;;6.10;100.00;100645.78;2104728;28;20862;-73
2022/09/30 03:44:01;;;;;;;45.33;32.65;;;;;;;6.22;100.00;100649.19;2095636;28;35647;-73
2022/09/30 03:45:10;;;;;;;43.75;32.15;;;;;;;6.20;100.00;100643.03;2101802;28;38461;-73
2022/09/30 03:46:30;;;;;;;45.40;33.00;;;;;;;6.26;100.00;100650.94;2104136;28;34171;-74
2022/09/30 03:47:41;;;;;;;46.40;34.03;;;;;;;6.27;100.00;100648.25;2105039;28;25248;-73
2022/09/30 03:48:47;;;;;;;42.78;31.00;;;;;;;6.28;100.00;100649.13;2096109;28;20025;-73
2022/09/30 03:49:58;;;;;;;44.88;33.97;;;;;;;6.28;100.00;100646.47;2095572;28;37146;-72
2022/09/30 03:51:03;;;;;;;41.60;31.60;;;;;;;6.31;100.00;100644.66;2098275;28;20941;-73
2022/09/30 03:52:11;;;;;;;42.30;31.48;;;;;;;6.33;100.00;100647.31;2096101;28;20181;-73
2022/09/30 03:53:13;;;;;;;36.50;27.27;;;;;;;6.32;100.00;100650.88;2097592;28;21284;-73
2022/09/30 03:54:17;;;;;;;42.53;32.60;;;;;;;6.33;100.00;100642.00;2105220;28;20834;-73
2022/09/30 03:55:21;;;;;;;40.22;27.58;;;;;;;6.34;100.00;100641.09;2104125;28;41353;-73
2022/09/30 03:56:30;;;;;;;41.28;30.75;;;;;;;6.34;100.00;100642.91;2104868;28;20040;-73
2022/09/30 03:57:34;;;;;;;33.92;27.08;;;;;;;6.33;100.00;100647.31;2104316;28;33695;-73
2022/09/30 03:58:42;;;;;;;36.53;26.92;;;;;;;6.33;100.00;100642.00;2104354;28;32534;-73
2022/09/30 03:59:43;;;;;;;38.78;28.70;;;;;;;6.34;100.00;100643.78;2095439;28;37925;-73
2022/09/30 04:00:49;;;;;;;38.80;28.20;;;;;;;6.35;100.00;100645.50;2096145;28;35196;-73
2022/09/30 04:01:56;;;;;;;32.38;25.63;;;;;;;6.34;100.00;100645.56;2104417;28;28838;-73
2022/09/30 04:02:59;;;;;;;40.78;29.48;;;;;;;6.35;100.00;100640.19;2104225;28;31050;-73
2022/09/30 04:04:01;;;;;;;38.47;28.80;;;;;;;6.39;100.00;100644.59;2104087;28;37594;-73
2022/09/30 04:05:05;;;;;;;39.55;30.80;;;;;;;6.42;100.00;100647.22;2104286;28;34841;-73
2022/09/30 04:06:11;;;;;;;40.83;31.13;;;;;;;6.38;100.00;100640.16;2103993;28;38067;-73
2022/09/30 04:07:13;;;;;;;46.72;33.55;;;;;;;6.47;100.00;100645.38;2095244;28;36919;-73
2022/09/30 04:08:17;;;;;;;35.10;27.27;;;;;;;6.47;100.00;100650.69;2096766;28;32274;-73
2022/09/30 04:09:19;;;;;;;34.10;26.92;;;;;;;6.45;100.00;100657.81;2104094;28;36461;-73
2022/09/30 04:10:21;;;;;;;37.38;30.08;;;;;;;6.46;100.00;100651.63;2098824;28;20049;-73
2022/09/30 04:11:22;;;;;;;36.05;27.08;;;;;;;6.46;100.00;100656.94;2095620;28;34246;-73
2022/09/30 04:12:25;;;;;;;37.83;27.77;;;;;;;6.48;100.00;100660.47;2096299;28;31784;-73
2022/09/30 04:13:27;;;;;;;27.42;22.15;;;;;;;6.47;100.00;100656.03;2079149;28;20042;-73
2022/09/30 04:14:28;;;;;;;42.47;31.02;;;;;;;6.49;100.00;100667.53;2079506;28;32479;-73
2022/09/30 04:15:30;;;;;;;34.50;28.38;;;;;;;6.48;100.00;100657.78;2086973;28;32580;-73
2022/09/30 04:16:33;;;;;;;35.72;28.48;;;;;;;6.53;100.00;100670.16;2087343;28;31296;-74
2022/09/30 04:17:34;;;;;;;37.60;29.38;;;;;;;6.52;100.00;100657.78;2079993;28;35817;-74
2022/09/30 04:18:37;;;;;;;36.70;28.05;;;;;;;6.55;100.00;100665.69;2081419;28;20941;-74
2022/09/30 04:19:39;;;;;;;33.83;26.63;;;;;;;6.55;100.00;100671.00;2088055;28;36070;-74
2022/09/30 04:20:41;;;;;;;44.47;31.92;;;;;;;6.58;100.00;100663.88;2088924;28;29885;-73
2022/09/30 04:21:43;;;;;;;38.58;30.10;;;;;;;6.61;100.00;100665.66;2097893;28;20913;-74
2022/09/30 04:22:44;;;;;;;37.55;29.13;;;;;;;6.63;100.00;100671.81;2088432;28;33504;-73
2022/09/30 04:23:49;;;;;;;39.25;29.20;;;;;;;6.63;100.00;100672.69;2088378;28;25843;-73
2022/09/30 04:24:51;;;;;;;40.63;31.10;;;;;;;6.66;100.00;100671.81;2097015;28;32141;-73
2022/09/30 04:25:54;;;;;;;36.97;28.85;;;;;;;6.65;100.00;100667.38;2097151;28;38988;-73
2022/09/30 04:26:57;;;;;;;35.75;27.88;;;;;;;6.69;100.00;100677.97;2097684;28;20072;-74
2022/09/30 04:28:01;;;;;;;36.60;28.27;;;;;;;6.71;100.00;100669.06;2097946;28;20764;-73
2022/09/30 04:29:02;;;;;;;37.45;27.98;;;;;;;6.69;100.00;100664.66;2097204;28;37620;-74
2022/09/30 04:30:05;;;;;;;38.55;29.65;;;;;;;6.74;100.00;100677.91;2097637;28;20052;-73
2022/09/30 04:31:11;;;;;;;42.58;31.55;;;;;;;6.74;100.00;100671.72;2097980;28;30441;-73
2022/09/30 04:32:12;;;;;;;33.35;27.27;;;;;;;6.73;100.00;100664.63;2097147;28;32115;-74
2022/09/30 04:33:14;;;;;;;37.80;28.45;;;;;;;6.75;100.00;100673.44;2097399;28;35854;-74
2022/09/30 04:34:16;;;;;;;36.65;29.23;;;;;;;6.75;100.00;100676.13;2096845;28;34802;-73
2022/09/30 04:35:17;;;;;;;35.85;27.42;;;;;;;6.73;100.00;100673.50;2097168;28;30904;-73
2022/09/30 04:36:19;;;;;;;39.42;30.33;;;;;;;6.76;100.00;100677.88;2088272;28;33643;-73
2022/09/30 04:37:25;;;;;;;32.30;24.85;;;;;;;6.74;100.00;100680.56;2088410;28;36148;-74
2022/09/30 04:38:27;;;;;;;36.30;28.17;;;;;;;6.76;100.00;100673.44;2097087;28;38836;-73
2022/09/30 04:39:28;;;;;;;35.35;26.63;;;;;;;6.75;100.00;100678.78;2088230;28;41253;-73
2022/09/30 04:40:30;;;;;;;33.47;26.25;;;;;;;6.74;100.00;100680.56;2095269;28;20045;-73
2022/09/30 04:41:33;;;;;;;34.67;26.23;;;;;;;6.73;100.00;100681.47;2105272;28;39029;-74
2022/09/30 04:42:34;;;;;;;36.35;27.73;;;;;;;6.77;100.00;100688.53;2105365;28;31483;-73
2022/09/30 04:43:36;;;;;;;32.70;25.75;;;;;;;6.76;100.00;100688.53;2105334;28;33047;-73
2022/09/30 04:44:38;;;;;;;34.17;25.50;;;;;;;6.75;100.00;100685.00;2105521;28;33019;-73
2022/09/30 04:45:43;;;;;;;30.83;24.42;;;;;;;6.75;100.00;100686.75;2106047;28;20083;-74
2022/09/30 04:46:49;;;;;;;31.85;25.35;;;;;;;6.74;100.00;100688.53;2104981;28;37730;-73
2022/09/30 04:47:51;;;;;;;38.65;28.13;;;;;;;6.76;100.00;100689.41;2096576;28;32084;-73
2022/09/30 04:48:52;;;;;;;35.95;26.50;;;;;;;6.78;100.00;100692.06;2096192;28;28425;-73
2022/09/30 04:49:55;;;;;;;36.05;28.65;;;;;;;6.78;100.00;100703.56;2096542;28;36704;-73
2022/09/30 04:50:58;;;;;;;36.55;26.73;;;;;;;6.76;100.00;100700.03;2096376;28;38732;-73
2022/09/30 04:52:00;;;;;;;30.23;24.52;;;;;;;6.75;100.00;100698.31;2105723;28;34029;-74
2022/09/30 04:53:05;;;;;;;41.83;29.10;;;;;;;6.76;100.00;100697.38;2105801;28;32035;-73
2022/09/30 04:54:07;;;;;;;35.88;28.85;;;;;;;6.78;100.00;100700.03;2105128;28;40046;-73
2022/09/30 04:55:10;;;;;;;33.28;26.13;;;;;;;6.77;100.00;100699.16;2105597;28;34524;-73
2022/09/30 04:56:12;;;;;;;35.67;27.35;;;;;;;6.78;100.00;100697.38;2096828;28;34992;-73
2022/09/30 04:57:14;;;;;;;36.72;28.77;;;;;;;6.80;100.00;100696.47;2088386;28;35187;-73
2022/09/30 04:58:18;;;;;;;39.03;28.48;;;;;;;6.80;100.00;100691.16;2096506;28;35742;-73
2022/09/30 04:59:20;;;;;;;35.97;28.25;;;;;;;6.79;100.00;100699.16;2105001;28;34832;-73
2022/09/30 05:00:21;;;;;;;39.22;27.05;;;;;;;6.78;100.00;100700.91;2096531;28;36706;-73
2022/09/30 05:01:23;;;;;;;33.10;26.13;;;;;;;6.77;100.00;100696.50;2096606;28;36360;-73
2022/09/30 05:02:25;;;;;;;31.75;26.58;;;;;;;6.75;100.00;100698.31;2105910;28;27255;-72
2022/09/30 05:03:27;;;;;;;31.77;26.15;;;;;;;6.74;100.00;100701.84;2096499;28;29469;-73
2022/09/30 05:04:32;;;;;;;33.97;26.85;;;;;;;6.73;100.00;100700.09;2079889;28;39550;-73
2022/09/30 05:05:33;;;;;;;34.55;26.73;;;;;;;6.72;100.00;100701.00;2089821;28;22331;-73
2022/09/30 05:06:35;;;;;;;34.42;26.55;;;;;;;6.72;100.00;100708.97;2105499;28;36882;-73
2022/09/30 05:07:37;;;;;;;30.55;24.45;;;;;;;6.70;100.00;100702.78;2104736;28;40616;-73
2022/09/30 05:08:41;;;;;;;34.80;25.42;;;;;;;6.70;100.00;100710.78;2105569;28;36718;-73
2022/09/30 05:09:46;;;;;;;30.58;24.88;;;;;;;6.67;100.00;100706.34;2096044;28;36107;-73
2022/09/30 05:11:00;;;;;;;31.73;24.45;;;;;;;6.66;100.00;100704.59;2097691;28;32425;-73
2022/09/30 05:12:02;;;;;;;30.05;24.40;;;;;;;6.66;100.00;100719.69;2104581;28;36252;-73
2022/09/30 05:13:06;;;;;;;30.73;26.30;;;;;;;6.65;100.00;100717.91;2105401;28;40657;-73
2022/09/30 05:14:08;;;;;;;32.97;26.13;;;;;;;6.63;100.00;100715.25;2105712;28;22995;-74
2022/09/30 05:15:10;;;;;;;36.10;27.15;;;;;;;6.62;100.00;100713.53;2097069;28;34405;-73
2022/09/30 05:16:13;;;;;;;30.05;25.50;;;;;;;6.62;100.00;100717.94;2097188;28;32061;-73
2022/09/30 05:17:15;;;;;;;32.28;25.45;;;;;;;6.59;100.00;100724.19;2096351;28;35395;-73
2022/09/30 05:18:21;;;;;;;31.10;25.15;;;;;;;6.56;100.00;100713.56;2096573;28;20837;-73
2022/09/30 05:19:23;;;;;;;28.50;23.38;;;;;;;6.58;100.00;100713.56;2089342;28;20042;-73
2022/09/30 05:20:24;;;;;;;29.65;24.23;;;;;;;6.57;100.00;100714.44;2096346;28;36279;-73
2022/09/30 05:21:27;;;;;;;32.83;25.60;;;;;;;6.57;100.00;100711.78;2105540;28;31002;-73